createdAt,value
2023-02-12T00:01:53.867Z,3.63
2023-02-12T00:04:23.030Z,3.50
2023-02-12T00:06:52.040Z,3.61
2023-02-12T00:09:21.029Z,3.90
2023-02-12T00:11:51.695Z,3.74
2023-02-12T00:14:20.772Z,3.80
2023-02-12T00:16:49.641Z,3.80
2023-02-12T00:19:18.908Z,3.57
2023-02-12T00:21:47.940Z,3.65
2023-02-12T00:24:17.248Z,3.83
2023-02-12T00:26:48.221Z,3.78
2023-02-12T00:29:19.265Z,3.48
2023-02-12T00:31:47.751Z,3.96
2023-02-12T00:34:16.911Z,3.22
2023-02-12T00:36:46.154Z,3.22
2023-02-12T00:39:16.009Z,3.36
2023-02-12T00:41:45.012Z,3.32
2023-02-12T00:44:14.864Z,3.21
2023-02-12T00:46:45.529Z,3.23
2023-02-12T00:49:14.814Z,2.91
2023-02-12T00:51:43.878Z,2.96
2023-02-12T00:54:12.963Z,3.13
2023-02-12T00:56:42.198Z,3.19
2023-02-12T00:59:11.201Z,3.16
2023-02-12T01:01:41.509Z,3.28
2023-02-12T01:04:13.086Z,3.29
2023-02-12T01:06:42.234Z,3.19
2023-02-12T01:09:12.009Z,3.31
2023-02-12T01:11:41.752Z,2.94
2023-02-12T01:14:10.933Z,3.06
2023-02-12T01:16:41.287Z,3.04
2023-02-12T01:19:13.482Z,3.22
2023-02-12T01:21:42.657Z,2.75
2023-02-12T01:24:11.963Z,2.71
2023-02-12T01:26:41.149Z,2.82
2023-02-12T01:29:10.384Z,2.75
2023-02-12T01:31:40.350Z,2.69
2023-02-12T01:34:09.831Z,3.03
2023-02-12T01:36:41.907Z,3.29
2023-02-12T01:39:12.934Z,3.07
2023-02-12T01:41:44.063Z,2.76
2023-02-12T01:44:17.331Z,2.53
2023-02-12T01:46:49.743Z,2.88
2023-02-12T01:49:21.670Z,3.24
2023-02-12T01:51:54.704Z,3.09
2023-02-12T01:54:25.886Z,2.75
2023-02-12T01:56:55.342Z,2.61
2023-02-12T01:59:25.646Z,2.63
2023-02-12T02:01:55.158Z,2.61
2023-02-12T02:04:27.380Z,2.61
2023-02-12T02:06:59.909Z,2.61
2023-02-12T02:09:30.319Z,2.73
2023-02-12T02:12:17.069Z,2.68
2023-02-12T02:14:49.202Z,2.85
2023-02-12T02:17:20.639Z,2.99
2023-02-12T02:20:14.868Z,3.20
2023-02-12T02:22:47.256Z,2.99
2023-02-12T02:25:41.692Z,2.93
2023-02-12T02:28:27.668Z,3.02
2023-02-12T02:30:59.765Z,2.96
2023-02-12T02:33:38.092Z,2.84
2023-02-12T02:36:16.177Z,2.65
2023-02-12T02:38:48.077Z,3.05
2023-02-12T02:41:22.667Z,3.03
2023-02-12T02:43:52.613Z,3.22
2023-02-12T02:46:26.126Z,2.91
2023-02-12T02:48:59.234Z,2.72
2023-02-12T02:51:31.680Z,2.94
2023-02-12T02:54:06.355Z,2.90
2023-02-12T02:56:38.581Z,3.14
2023-02-12T02:59:10.077Z,2.90
2023-02-12T03:01:42.808Z,2.51
2023-02-12T03:04:17.389Z,2.81
2023-02-12T03:06:48.521Z,2.86
2023-02-12T03:09:22.120Z,2.51
2023-02-12T03:11:51.907Z,2.55
2023-02-12T03:14:24.860Z,2.91
2023-02-12T03:16:59.121Z,2.83
2023-02-12T03:19:32.271Z,2.99
2023-02-12T03:22:03.835Z,2.79
2023-02-12T03:24:36.879Z,2.81
2023-02-12T03:27:09.209Z,2.85
2023-02-12T03:29:38.347Z,3.09
2023-02-12T03:32:20.565Z,2.62
2023-02-12T03:34:52.330Z,2.27
2023-02-12T03:37:26.543Z,2.67
2023-02-12T03:39:58.266Z,2.84
2023-02-12T03:42:35.789Z,3.10
2023-02-12T03:45:09.976Z,3.22
2023-02-12T03:47:47.821Z,3.16
2023-02-12T03:50:20.712Z,3.15
2023-02-12T03:52:52.326Z,3.14
2023-02-12T03:55:21.712Z,3.06
2023-02-12T03:57:54.656Z,3.16
2023-02-12T04:00:25.068Z,3.06
2023-02-12T04:02:56.510Z,2.71
2023-02-12T04:05:28.848Z,2.96
2023-02-12T04:07:58.925Z,2.93
2023-02-12T04:10:31.043Z,3.16
2023-02-12T04:13:05.846Z,3.21
2023-02-12T04:15:46.773Z,2.97
2023-02-12T04:18:22.656Z,3.08
2023-02-12T04:20:56.433Z,3.06
2023-02-12T04:23:39.260Z,3.30
2023-02-12T04:26:12.797Z,3.19
2023-02-12T04:28:45.469Z,3.05
2023-02-12T04:31:22.378Z,3.07
2023-02-12T04:34:01.756Z,2.88
2023-02-12T04:36:35.432Z,2.94
2023-02-12T04:39:07.619Z,2.82
2023-02-12T04:41:36.682Z,2.82
2023-02-12T04:44:20.420Z,2.96
2023-02-12T04:46:49.081Z,2.64
2023-02-12T04:49:21.332Z,2.77
2023-02-12T04:51:50.843Z,2.31
2023-02-12T04:54:21.095Z,2.41
2023-02-12T04:56:49.760Z,2.40
2023-02-12T04:59:18.916Z,2.27
2023-02-12T05:01:47.718Z,2.33
2023-02-12T05:04:19.357Z,2.23
2023-02-12T05:06:48.790Z,2.45
2023-02-12T05:09:19.682Z,2.65
2023-02-12T05:11:49.012Z,2.49
2023-02-12T05:14:18.143Z,2.47
2023-02-12T05:16:46.940Z,2.33
2023-02-12T05:19:16.004Z,2.57
2023-02-12T05:21:46.532Z,2.44
2023-02-12T05:24:15.717Z,2.38
2023-02-12T05:26:44.882Z,2.50
2023-02-12T05:29:13.980Z,2.54
2023-02-12T05:31:42.928Z,2.49
2023-02-12T05:34:13.141Z,2.48
2023-02-12T05:36:42.521Z,2.52
2023-02-12T05:39:13.390Z,2.52
2023-02-12T05:41:42.492Z,2.51
2023-02-12T05:44:12.663Z,2.81
2023-02-12T05:46:41.428Z,2.70
2023-02-12T05:49:10.691Z,2.75
2023-02-12T05:51:39.875Z,2.72
2023-02-12T05:54:09.420Z,2.79
2023-02-12T05:56:46.920Z,2.79
2023-02-12T05:59:18.352Z,2.79
2023-02-12T06:01:49.131Z,2.86
2023-02-12T06:04:19.825Z,2.91
2023-02-12T06:06:49.058Z,2.92
2023-02-12T06:09:18.475Z,3.14
2023-02-12T06:11:49.048Z,2.97
2023-02-12T06:14:19.879Z,2.88
2023-02-12T06:16:49.676Z,2.89
2023-02-12T06:19:18.640Z,3.15
2023-02-12T06:21:47.925Z,3.10
2023-02-12T06:24:19.532Z,3.42
2023-02-12T06:26:51.192Z,3.23
2023-02-12T06:29:20.764Z,3.38
2023-02-12T06:31:49.913Z,3.40
2023-02-12T06:34:19.402Z,3.50
2023-02-12T06:36:49.064Z,3.58
2023-02-12T06:39:18.718Z,3.65
2023-02-12T06:41:47.723Z,3.58
2023-02-12T06:44:18.272Z,3.78
2023-02-12T06:46:46.874Z,3.80
2023-02-12T06:49:17.098Z,3.92
2023-02-12T06:51:45.825Z,4.18
2023-02-12T06:54:16.725Z,4.26
2023-02-12T06:56:45.876Z,4.26
2023-02-12T06:59:17.574Z,4.30
2023-02-12T07:01:46.254Z,4.55
2023-02-12T07:04:15.525Z,4.62
2023-02-12T07:06:45.101Z,4.79
2023-02-12T07:09:14.231Z,4.89
2023-02-12T07:11:43.205Z,5.11
2023-02-12T07:14:15.937Z,5.31
2023-02-12T07:16:46.163Z,5.41
2023-02-12T07:19:17.012Z,5.37
2023-02-12T07:21:46.066Z,5.74
2023-02-12T07:24:15.412Z,6.08
2023-02-12T07:26:44.538Z,6.25
2023-02-12T07:29:13.779Z,6.77
2023-02-12T07:31:42.993Z,7.07
2023-02-12T07:34:13.842Z,7.56
2023-02-12T07:36:43.225Z,7.79
2023-02-12T07:39:13.517Z,7.89
2023-02-12T07:41:42.237Z,8.64
2023-02-12T07:44:13.653Z,9.29
2023-02-12T07:46:46.942Z,10.31
2023-02-12T07:49:20.636Z,11.24
2023-02-12T07:51:50.217Z,12.55
2023-02-12T07:54:19.456Z,14.85
2023-02-12T07:56:48.586Z,17.03
2023-02-12T07:59:18.731Z,17.91
2023-02-12T08:01:49.375Z,18.60
2023-02-12T08:04:21.687Z,18.91
2023-02-12T08:06:53.665Z,18.83
2023-02-12T08:09:24.065Z,18.79
2023-02-12T08:11:53.360Z,20.09
2023-02-12T08:14:23.485Z,19.52
2023-02-12T08:16:52.863Z,21.11
2023-02-12T08:19:26.345Z,20.16
2023-02-12T08:21:56.692Z,19.11
2023-02-12T08:24:25.762Z,19.71
2023-02-12T08:26:55.022Z,18.62
2023-02-12T08:29:25.927Z,18.18
2023-02-12T08:31:58.124Z,16.25
2023-02-12T08:34:30.102Z,15.45
2023-02-12T08:36:59.934Z,17.52
2023-02-12T08:39:30.933Z,19.95
2023-02-12T08:42:00.778Z,19.38
2023-02-12T08:44:30.243Z,15.96
2023-02-12T08:46:59.251Z,12.30
2023-02-12T08:49:31.399Z,11.85
2023-02-12T08:52:01.980Z,12.14
2023-02-12T08:54:32.837Z,11.73
2023-02-12T08:57:04.494Z,14.29
2023-02-12T08:59:33.586Z,14.94
2023-02-12T09:02:04.406Z,16.06
2023-02-12T09:04:40.142Z,16.16
2023-02-12T09:07:10.931Z,16.21
2023-02-12T09:09:40.020Z,17.28
2023-02-12T09:12:10.188Z,19.60
2023-02-12T09:14:40.020Z,21.65
2023-02-12T09:17:09.060Z,22.14
2023-02-12T09:19:39.153Z,22.21
2023-02-12T09:22:09.459Z,20.55
2023-02-12T09:24:38.850Z,22.26
2023-02-12T09:27:07.976Z,19.50
2023-02-12T09:29:37.279Z,20.19
2023-02-12T09:32:06.812Z,20.62
2023-02-12T09:34:36.560Z,19.93
2023-02-12T09:37:07.029Z,20.81
2023-02-12T09:39:36.652Z,22.42
2023-02-12T09:42:31.618Z,22.77
2023-02-12T09:45:07.361Z,23.55
2023-02-12T09:47:41.992Z,23.17
2023-02-12T09:50:33.085Z,24.16
2023-02-12T09:53:03.612Z,24.73
2023-02-12T09:55:34.563Z,24.96
2023-02-12T09:58:06.310Z,23.70
2023-02-12T10:00:35.343Z,23.95
2023-02-12T10:03:06.099Z,24.60
2023-02-12T10:05:37.803Z,21.55
2023-02-12T10:08:27.811Z,20.40
2023-02-12T10:11:02.744Z,21.42
2023-02-12T10:13:38.325Z,22.93
2023-02-12T10:16:12.519Z,23.96
2023-02-12T10:19:11.042Z,22.84
2023-02-12T10:21:49.367Z,21.34
2023-02-12T10:24:45.111Z,19.11
2023-02-12T10:27:16.552Z,20.89
2023-02-12T10:29:47.477Z,22.53
2023-02-12T10:32:25.956Z,19.80
2023-02-12T10:34:55.364Z,17.00
2023-02-12T10:37:32.572Z,18.04
2023-02-12T10:40:08.291Z,17.49
2023-02-12T10:42:40.458Z,15.26
2023-02-12T10:45:15.397Z,14.26
2023-02-12T10:47:45.818Z,14.22
2023-02-12T10:50:23.625Z,12.90
2023-02-12T10:52:55.803Z,13.95
2023-02-12T10:55:28.182Z,14.03
2023-02-12T10:57:59.949Z,14.56
2023-02-12T11:00:32.627Z,14.30
2023-02-12T11:03:07.958Z,14.40
2023-02-12T11:05:38.308Z,14.78
2023-02-12T11:08:07.021Z,15.99
2023-02-12T11:10:40.433Z,16.59
2023-02-12T11:13:24.525Z,16.53
2023-02-12T11:15:54.457Z,16.65
2023-02-12T11:18:26.360Z,18.29
2023-02-12T11:20:57.997Z,19.36
2023-02-12T11:23:29.459Z,14.48
2023-02-12T11:26:01.860Z,16.12
2023-02-12T11:28:32.384Z,18.44
2023-02-12T11:31:02.867Z,19.67
2023-02-12T11:33:34.821Z,19.06
2023-02-12T11:36:07.892Z,16.04
2023-02-12T11:38:40.272Z,16.53
2023-02-12T11:41:24.550Z,16.40
2023-02-12T11:43:53.789Z,15.72
2023-02-12T11:46:25.159Z,16.10
2023-02-12T11:48:55.388Z,17.94
2023-02-12T11:51:29.356Z,15.39
2023-02-12T11:54:00.376Z,15.88
2023-02-12T11:56:43.900Z,15.70
2023-02-12T11:59:34.968Z,18.17
2023-02-12T12:02:10.814Z,18.81
2023-02-12T12:04:40.821Z,19.80
2023-02-12T12:07:16.475Z,21.34
2023-02-12T12:09:49.068Z,18.96
2023-02-12T12:12:22.226Z,17.99
2023-02-12T12:15:10.985Z,19.22
2023-02-12T12:18:03.837Z,17.80
2023-02-12T12:20:37.034Z,18.29
2023-02-12T12:23:10.943Z,16.64
2023-02-12T12:25:44.909Z,17.21
2023-02-12T12:28:29.254Z,16.71
2023-02-12T12:31:05.976Z,15.73
2023-02-12T12:33:40.069Z,14.17
2023-02-12T12:36:37.180Z,13.76
2023-02-12T12:39:19.877Z,14.28
2023-02-12T12:42:04.435Z,14.02
2023-02-12T12:44:42.269Z,12.44
2023-02-12T12:47:19.262Z,11.29
2023-02-12T12:50:00.111Z,11.23
2023-02-12T12:52:55.869Z,10.49
2023-02-12T12:55:39.758Z,9.39
2023-02-12T12:58:15.191Z,11.71
2023-02-12T13:01:00.241Z,12.00
2023-02-12T13:03:53.019Z,11.40
2023-02-12T13:06:38.689Z,11.10
2023-02-12T13:09:26.500Z,11.33
2023-02-12T13:12:13.559Z,10.17
2023-02-12T13:14:46.861Z,8.65
2023-02-12T13:17:20.569Z,8.03
2023-02-12T13:19:58.457Z,7.51
2023-02-12T13:22:33.047Z,8.09
2023-02-12T13:25:08.267Z,8.76
2023-02-12T13:27:40.611Z,7.51
2023-02-12T13:30:21.426Z,7.80
2023-02-12T13:33:02.975Z,8.21
2023-02-12T13:35:32.930Z,9.06
2023-02-12T13:38:02.384Z,6.53
2023-02-12T13:40:32.496Z,6.86
2023-02-12T13:43:07.696Z,7.13
2023-02-12T13:45:43.047Z,6.90
2023-02-12T13:48:26.857Z,6.45
2023-02-12T13:51:02.005Z,6.33
2023-02-12T13:53:38.353Z,6.62
2023-02-12T13:56:13.675Z,6.49
2023-02-12T13:58:53.688Z,6.05
2023-02-12T14:01:43.758Z,6.84
2023-02-12T14:04:26.955Z,6.63
2023-02-12T14:07:01.058Z,6.70
2023-02-12T14:09:38.989Z,5.60
2023-02-12T14:12:10.866Z,5.16
2023-02-12T14:14:42.304Z,5.77
2023-02-12T14:17:43.056Z,5.64
2023-02-12T14:20:26.273Z,5.36
2023-02-12T14:23:27.338Z,5.90
2023-02-12T14:26:04.527Z,6.21
2023-02-12T14:28:43.847Z,5.66
2023-02-12T14:31:33.464Z,5.52
2023-02-12T14:34:39.374Z,5.88
2023-02-12T14:37:37.636Z,5.83
2023-02-12T14:40:32.182Z,5.06
2023-02-12T14:43:02.936Z,5.33
2023-02-12T14:45:35.193Z,5.36
2023-02-12T14:48:04.804Z,5.45
2023-02-12T14:50:40.985Z,4.89
2023-02-12T14:53:27.427Z,4.47
2023-02-12T14:55:57.142Z,4.65
2023-02-12T14:58:27.983Z,4.46
2023-02-12T15:00:58.484Z,4.47
2023-02-12T15:03:33.323Z,4.08
2023-02-12T15:06:11.244Z,3.94
2023-02-12T15:08:46.496Z,3.49
2023-02-12T15:11:22.723Z,3.17
2023-02-12T15:13:56.222Z,3.26
2023-02-12T15:16:46.397Z,3.15
2023-02-12T15:19:32.970Z,3.39
2023-02-12T15:22:02.391Z,3.52
2023-02-12T15:24:33.185Z,3.52
2023-02-12T15:27:02.421Z,3.01
2023-02-12T15:29:38.044Z,3.47
2023-02-12T15:32:09.918Z,3.21
2023-02-12T15:34:41.928Z,3.19
2023-02-12T15:37:17.096Z,3.37
2023-02-12T15:39:48.257Z,3.02
2023-02-12T15:42:30.205Z,2.87
2023-02-12T15:45:19.757Z,2.99
2023-02-12T15:48:01.862Z,3.20
2023-02-12T15:50:31.748Z,2.55
2023-02-12T15:53:01.280Z,2.11
2023-02-12T15:55:36.380Z,1.89
2023-02-12T15:58:05.544Z,1.69
2023-02-12T16:00:41.565Z,1.68
2023-02-12T16:03:21.557Z,1.83
2023-02-12T16:05:51.316Z,2.05
2023-02-12T16:08:22.757Z,2.04
2023-02-12T16:10:54.857Z,2.16
2023-02-12T16:13:30.195Z,1.97
2023-02-12T16:16:09.060Z,1.89
2023-02-12T16:18:38.235Z,2.34
2023-02-12T16:21:11.863Z,1.90
2023-02-12T16:23:42.467Z,1.94
2023-02-12T16:26:18.635Z,2.01
2023-02-12T16:28:48.952Z,2.39
2023-02-12T16:31:18.799Z,2.92
2023-02-12T16:33:49.926Z,3.05
2023-02-12T16:36:32.946Z,3.01
2023-02-12T16:39:03.506Z,3.01
2023-02-12T16:41:34.127Z,3.16
2023-02-12T16:44:31.240Z,3.11
2023-02-12T16:47:02.120Z,2.93
2023-02-12T16:49:31.299Z,2.58
2023-02-12T16:52:23.049Z,3.26
2023-02-12T16:54:52.178Z,2.97
2023-02-12T16:57:22.892Z,2.99
2023-02-12T16:59:52.136Z,3.00
2023-02-12T17:02:21.509Z,3.13
2023-02-12T17:04:50.277Z,2.91
2023-02-12T17:07:23.224Z,2.96
2023-02-12T17:09:52.714Z,2.81
2023-02-12T17:12:23.529Z,3.17
2023-02-12T17:14:52.729Z,2.72
2023-02-12T17:17:21.872Z,2.77
2023-02-12T17:19:50.565Z,2.85
2023-02-12T17:22:22.876Z,2.52
2023-02-12T17:24:53.430Z,2.28
2023-02-12T17:27:24.304Z,2.82
2023-02-12T17:29:54.601Z,2.69
2023-02-12T17:32:24.612Z,2.15
2023-02-12T17:34:53.581Z,2.22
2023-02-12T17:37:24.677Z,2.08
2023-02-12T17:39:55.295Z,0.87
2023-02-12T17:42:25.916Z,1.26
2023-02-12T17:44:55.306Z,1.24
2023-02-12T17:47:25.696Z,1.79
2023-02-12T17:49:54.430Z,2.20
2023-02-12T17:52:23.616Z,2.18
2023-02-12T17:54:55.050Z,1.92
2023-02-12T17:57:25.719Z,1.61
2023-02-12T17:59:54.799Z,1.28
2023-02-12T18:02:24.052Z,1.38
2023-02-12T18:04:53.189Z,1.75
2023-02-12T18:07:22.342Z,2.63
2023-02-12T18:09:51.733Z,2.79
2023-02-12T18:12:20.934Z,2.34
2023-02-12T18:14:51.816Z,2.70
2023-02-12T18:17:21.076Z,2.71
2023-02-12T18:19:50.636Z,2.60
2023-02-12T18:22:19.855Z,2.51
2023-02-12T18:24:49.103Z,2.88
2023-02-12T18:27:18.554Z,3.18
2023-02-12T18:29:47.710Z,3.04
2023-02-12T18:32:18.492Z,3.34
2023-02-12T18:34:47.680Z,3.51
2023-02-12T18:37:17.997Z,3.43
2023-02-12T18:39:47.503Z,3.70
2023-02-12T18:42:16.641Z,2.71
2023-02-12T18:44:45.956Z,2.21
2023-02-12T18:47:15.284Z,2.54
2023-02-12T18:49:46.316Z,2.44
2023-02-12T18:52:15.530Z,2.39
2023-02-12T18:54:45.546Z,2.49
2023-02-12T18:57:14.968Z,3.10
2023-02-12T18:59:44.391Z,4.07
2023-02-12T19:02:14.941Z,4.17
2023-02-12T19:04:43.873Z,3.93
2023-02-12T19:07:14.504Z,3.76
2023-02-12T19:09:44.018Z,3.75
2023-02-12T19:12:13.917Z,3.80
2023-02-12T19:14:43.266Z,3.65
2023-02-12T19:17:12.447Z,3.99
2023-02-12T19:19:41.289Z,3.67
2023-02-12T19:22:10.446Z,3.75
2023-02-12T19:24:46.854Z,3.75
2023-02-12T19:27:16.199Z,3.60
2023-02-12T19:29:45.608Z,3.48
2023-02-12T19:32:14.663Z,3.68
2023-02-12T19:34:43.383Z,4.24
2023-02-12T19:37:13.997Z,4.07
2023-02-12T19:39:44.567Z,4.06
2023-02-12T19:42:15.002Z,3.88
2023-02-12T19:44:44.736Z,4.21
2023-02-12T19:47:13.850Z,3.45
2023-02-12T19:49:42.669Z,3.70
2023-02-12T19:52:11.671Z,4.02
2023-02-12T19:54:40.764Z,3.95
2023-02-12T19:57:13.486Z,3.87
2023-02-12T19:59:42.827Z,3.75
2023-02-12T20:02:11.816Z,3.92
2023-02-12T20:04:41.420Z,4.18
2023-02-12T20:07:10.602Z,3.76
2023-02-12T20:09:40.292Z,3.90
2023-02-12T20:12:10.867Z,4.05
2023-02-12T20:14:39.923Z,4.39
2023-02-12T20:17:09.086Z,4.09
2023-02-12T20:19:37.816Z,4.30
2023-02-12T20:22:06.898Z,4.45
2023-02-12T20:24:36.293Z,4.40
2023-02-12T20:27:05.464Z,4.49
2023-02-12T20:29:35.904Z,4.52
2023-02-12T20:32:04.987Z,4.64
2023-02-12T20:34:48.853Z,4.69
2023-02-12T20:37:19.472Z,4.66
2023-02-12T20:39:48.535Z,4.47
2023-02-12T20:42:17.457Z,4.51
2023-02-12T20:44:47.989Z,4.78
2023-02-12T20:47:17.028Z,4.58
2023-02-12T20:49:45.624Z,4.74
2023-02-12T20:52:14.697Z,4.50
2023-02-12T20:54:43.782Z,4.70
2023-02-12T20:57:12.805Z,4.69
2023-02-12T20:59:41.959Z,4.53
2023-02-12T21:02:13.246Z,4.38
2023-02-12T21:04:41.958Z,4.41
2023-02-12T21:07:11.028Z,4.67
2023-02-12T21:09:40.123Z,4.58
2023-02-12T21:12:09.114Z,4.96
2023-02-12T21:14:38.330Z,4.65
2023-02-12T21:17:07.410Z,4.88
2023-02-12T21:19:37.721Z,4.48
2023-02-12T21:22:06.676Z,4.35
2023-02-12T21:24:36.888Z,4.86
2023-02-12T21:27:05.898Z,4.43
2023-02-12T21:29:34.932Z,4.63
2023-02-12T21:32:03.987Z,4.25
2023-02-12T21:34:33.069Z,4.52
2023-02-12T21:37:03.512Z,3.97
2023-02-12T21:39:32.541Z,4.44
2023-02-12T21:42:03.892Z,4.59
2023-02-12T21:44:35.469Z,4.33
2023-02-12T21:47:04.925Z,4.26
2023-02-12T21:49:33.581Z,4.25
2023-02-12T21:52:06.665Z,4.78
2023-02-12T21:54:36.705Z,4.89
2023-02-12T21:57:05.701Z,4.83
2023-02-12T21:59:34.682Z,4.70
2023-02-12T22:02:03.925Z,4.84
2023-02-12T22:04:34.858Z,4.62
2023-02-12T22:07:05.529Z,4.58
2023-02-12T22:09:34.570Z,4.63
2023-02-12T22:12:03.632Z,4.43
2023-02-12T22:14:32.830Z,4.84
2023-02-12T22:17:01.814Z,4.23
2023-02-12T22:19:30.430Z,4.33
2023-02-12T22:21:59.382Z,4.88
2023-02-12T22:24:29.853Z,4.80
2023-02-12T22:26:58.783Z,4.79
2023-02-12T22:29:27.885Z,4.76
2023-02-12T22:31:56.624Z,4.86
2023-02-12T22:34:25.743Z,4.96
2023-02-12T22:36:54.798Z,4.87
2023-02-12T22:39:23.896Z,4.74
2023-02-12T22:41:54.299Z,4.75
2023-02-12T22:44:23.352Z,4.38
2023-02-12T22:46:51.974Z,4.98
2023-02-12T22:49:21.067Z,4.67
2023-02-12T22:51:50.424Z,4.68
2023-02-12T22:54:20.391Z,4.77
2023-02-12T22:56:52.026Z,4.85
2023-02-12T22:59:22.725Z,4.75
2023-02-12T23:01:51.406Z,4.72
2023-02-12T23:04:20.773Z,4.99
2023-02-12T23:06:49.886Z,5.04
2023-02-12T23:09:19.991Z,4.79
2023-02-12T23:11:49.588Z,4.87
2023-02-12T23:14:19.640Z,4.83
2023-02-12T23:16:49.881Z,4.66
2023-02-12T23:19:18.931Z,4.22
2023-02-12T23:21:48.019Z,4.66
2023-02-12T23:24:17.005Z,4.49
2023-02-12T23:26:46.050Z,5.02
2023-02-12T23:29:15.168Z,4.69
2023-02-12T23:31:43.830Z,4.97
2023-02-12T23:34:14.418Z,5.15
2023-02-12T23:36:43.386Z,4.92
2023-02-12T23:39:13.639Z,4.89
2023-02-12T23:41:42.313Z,5.22
2023-02-12T23:44:11.490Z,4.95
2023-02-12T23:46:40.036Z,5.23
2023-02-12T23:49:09.263Z,5.06
2023-02-12T23:51:39.729Z,5.17
2023-02-12T23:54:08.807Z,5.12
2023-02-12T23:56:37.856Z,4.92
2023-02-12T23:59:07.089Z,5.43
